sensor_id;sensor_type;location;lat;lon;timestamp;pressure;altitude;pressure_sealevel;temperature;humidity
25664;BME280;13522;50.018;20.014;2023-04-07T00:01:29;98799.25;;;0.97;100.00
25664;BME280;13522;50.018;20.014;2023-04-07T00:04:41;98786.66;;;0.87;100.00
25664;BME280;13522;50.018;20.014;2023-04-07T00:07:54;98796.45;;;1.00;100.00
25664;BME280;13522;50.018;20.014;2023-04-07T00:11:07;98800.77;;;1.01;100.00
25664;BME280;13522;50.018;20.014;2023-04-07T00:14:19;98797.39;;;0.99;100.00
25664;BME280;13522;50.018;20.014;2023-04-07T00:17:31;98794.69;;;1.00;100.00
25664;BME280;13522;50.018;20.014;2023-04-07T00:20:44;98781.70;;;0.99;100.00
25664;BME280;13522;50.018;20.014;2023-04-07T00:23:56;98785.91;;;1.01;100.00
25664;BME280;13522;50.018;20.014;2023-04-07T00:27:08;98779.85;;;1.01;100.00
25664;BME280;13522;50.018;20.014;2023-04-07T00:30:21;98777.15;;;1.02;100.00
25664;BME280;13522;50.018;20.014;2023-04-07T00:33:33;98780.67;;;1.01;100.00
25664;BME280;13522;50.018;20.014;2023-04-07T00:36:46;98776.39;;;1.00;100.00
25664;BME280;13522;50.018;20.014;2023-04-07T00:39:58;98774.44;;;1.04;100.00
25664;BME280;13522;50.018;20.014;2023-04-07T00:43:10;98769.21;;;1.04;100.00
25664;BME280;13522;50.018;20.014;2023-04-07T00:46:24;98770.22;;;1.01;100.00
25664;BME280;13522;50.018;20.014;2023-04-07T00:49:37;98769.30;;;1.02;100.00
25664;BME280;13522;50.018;20.014;2023-04-07T00:52:49;98769.39;;;1.01;100.00
25664;BME280;13522;50.018;20.014;2023-04-07T00:56:02;98772.92;;;1.00;100.00
25664;BME280;13522;50.018;20.014;2023-04-07T00:59:14;98769.21;;;1.04;100.00
25664;BME280;13522;50.018;20.014;2023-04-07T01:02:31;98765.84;;;1.02;100.00
25664;BME280;13522;50.018;20.014;2023-04-07T01:05:52;98764.92;;;1.03;100.00
25664;BME280;13522;50.018;20.014;2023-04-07T01:09:10;98771.92;;;1.02;100.00
25664;BME280;13522;50.018;20.014;2023-04-07T01:12:31;98777.05;;;1.04;100.00
25664;BME280;13522;50.018;20.014;2023-04-07T01:15:48;98770.73;;;1.08;100.00
25664;BME280;13522;50.018;20.014;2023-04-07T01:19:07;98774.11;;;1.10;100.00
25664;BME280;13522;50.018;20.014;2023-04-07T01:22:28;98766.36;;;1.08;100.00
25664;BME280;13522;50.018;20.014;2023-04-07T01:26:06;98758.60;;;1.07;100.00
25664;BME280;13522;50.018;20.014;2023-04-07T01:29:31;98750.82;;;1.05;100.00
25664;BME280;13522;50.018;20.014;2023-04-07T01:32:49;98753.43;;;1.05;100.00
25664;BME280;13522;50.018;20.014;2023-04-07T01:36:01;98738.69;;;1.04;100.00
25664;BME280;13522;50.018;20.014;2023-04-07T01:39:14;98735.31;;;1.02;100.00
25664;BME280;13522;50.018;20.014;2023-04-07T01:42:27;98733.55;;;1.03;100.00
25664;BME280;13522;50.018;20.014;2023-04-07T01:45:42;98730.94;;;1.03;100.00
25664;BME280;13522;50.018;20.014;2023-04-07T01:48:55;98736.16;;;1.03;100.00
25664;BME280;13522;50.018;20.014;2023-04-07T01:52:08;98744.92;;;1.02;100.00
25664;BME280;13522;50.018;20.014;2023-04-07T01:55:22;98755.38;;;1.02;100.00
25664;BME280;13522;50.018;20.014;2023-04-07T01:58:36;98756.99;;;1.04;100.00
25664;BME280;13522;50.018;20.014;2023-04-07T02:01:50;98760.27;;;1.08;100.00
25664;BME280;13522;50.018;20.014;2023-04-07T02:05:06;98755.05;;;1.08;100.00
25664;BME280;13522;50.018;20.014;2023-04-07T02:08:23;98748.90;;;1.09;100.00
25664;BME280;13522;50.018;20.014;2023-04-07T02:11:37;98743.73;;;1.07;100.00
25664;BME280;13522;50.018;20.014;2023-04-07T02:14:51;98741.06;;;1.09;100.00
25664;BME280;13522;50.018;20.014;2023-04-07T02:18:05;98743.67;;;1.09;100.00
25664;BME280;13522;50.018;20.014;2023-04-07T02:21:20;98734.13;;;1.08;100.00
25664;BME280;13522;50.018;20.014;2023-04-07T02:24:33;98733.97;;;1.11;100.00
25664;BME280;13522;50.018;20.014;2023-04-07T02:27:45;98733.97;;;1.11;100.00
25664;BME280;13522;50.018;20.014;2023-04-07T02:30:58;98744.43;;;1.11;100.00
25664;BME280;13522;50.018;20.014;2023-04-07T02:34:10;98728.89;;;1.08;100.00
25664;BME280;13522;50.018;20.014;2023-04-07T02:37:22;98730.59;;;1.09;100.00
25664;BME280;13522;50.018;20.014;2023-04-07T02:40:35;98731.60;;;1.06;100.00
25664;BME280;13522;50.018;20.014;2023-04-07T02:43:47;98734.03;;;1.09;100.00
25664;BME280;13522;50.018;20.014;2023-04-07T02:47:00;98727.98;;;1.09;100.00
25664;BME280;13522;50.018;20.014;2023-04-07T02:50:13;98728.89;;;1.08;100.00
25664;BME280;13522;50.018;20.014;2023-04-07T03:15:07;98718.44;;;1.08;100.00
25664;BME280;13522;50.018;20.014;2023-04-07T03:18:25;98712.30;;;1.09;100.00
25664;BME280;13522;50.018;20.014;2023-04-07T03:21:39;98720.95;;;1.09;100.00
25664;BME280;13522;50.018;20.014;2023-04-07T03:24:51;98711.34;;;1.10;100.00
25664;BME280;13522;50.018;20.014;2023-04-07T03:28:05;98713.96;;;1.10;100.00
25664;BME280;13522;50.018;20.014;2023-04-07T03:31:17;98719.95;;;1.12;100.00
25664;BME280;13522;50.018;20.014;2023-04-07T03:34:30;98729.41;;;1.14;100.00
25664;BME280;13522;50.018;20.014;2023-04-07T03:37:42;98732.78;;;1.16;100.00
25664;BME280;13522;50.018;20.014;2023-04-07T03:40:55;98722.91;;;1.06;100.00
25664;BME280;13522;50.018;20.014;2023-04-07T03:44:07;98739.62;;;1.19;100.00
25664;BME280;13522;50.018;20.014;2023-04-07T03:47:22;98729.16;;;1.19;100.00
25664;BME280;13522;50.018;20.014;2023-04-07T03:50:36;98724.84;;;1.18;100.00
25664;BME280;13522;50.018;20.014;2023-04-07T03:53:50;98732.78;;;1.16;100.00
25664;BME280;13522;50.018;20.014;2023-04-07T03:57:04;98730.26;;;1.15;100.00
25664;BME280;13522;50.018;20.014;2023-04-07T04:00:19;98740.53;;;1.18;100.00
25664;BME280;13522;50.018;20.014;2023-04-07T04:03:40;98747.13;;;1.25;100.00
25664;BME280;13522;50.018;20.014;2023-04-07T04:06:57;98756.73;;;1.24;100.00
25664;BME280;13522;50.018;20.014;2023-04-07T04:10:20;98746.27;;;1.24;100.00
25664;BME280;13522;50.018;20.014;2023-04-07T04:13:32;98761.78;;;1.27;100.00
25664;BME280;13522;50.018;20.014;2023-04-07T04:16:45;98752.60;;;1.20;100.00
25664;BME280;13522;50.018;20.014;2023-04-07T04:20:09;98743.15;;;1.18;100.00
25664;BME280;13522;50.018;20.014;2023-04-07T04:23:24;98718.09;;;1.14;100.00
25664;BME280;13522;50.018;20.014;2023-04-07T04:26:36;98692.89;;;1.13;100.00
25664;BME280;13522;50.018;20.014;2023-04-07T04:29:50;98685.95;;;1.12;100.00
25664;BME280;13522;50.018;20.014;2023-04-07T04:33:03;98725.02;;;1.15;100.00
25664;BME280;13522;50.018;20.014;2023-04-07T04:36:20;98745.86;;;1.16;100.00
25664;BME280;13522;50.018;20.014;2023-04-07T04:39:35;98724.84;;;1.18;100.00
25664;BME280;13522;50.018;20.014;2023-04-07T04:42:48;98744.84;;;1.19;100.00
25664;BME280;13522;50.018;20.014;2023-04-07T04:46:02;98744.84;;;1.19;100.00
25664;BME280;13522;50.018;20.014;2023-04-07T04:49:16;98747.28;;;1.22;100.00
25664;BME280;13522;50.018;20.014;2023-04-07T04:52:28;98741.14;;;1.23;100.00
25664;BME280;13522;50.018;20.014;2023-04-07T04:55:41;98727.72;;;1.29;100.00
25664;BME280;13522;50.018;20.014;2023-04-07T04:58:56;98741.89;;;1.25;100.00
25664;BME280;13522;50.018;20.014;2023-04-07T05:02:10;98770.48;;;1.28;100.00
25664;BME280;13522;50.018;20.014;2023-04-07T05:08:23;98772.66;;;1.35;100.00
25664;BME280;13522;50.018;20.014;2023-04-07T05:11:35;98775.52;;;1.31;100.00
25664;BME280;13522;50.018;20.014;2023-04-07T05:14:47;98763.14;;;1.34;100.00
25664;BME280;13522;50.018;20.014;2023-04-07T05:18:00;98749.97;;;1.36;100.00
25664;BME280;13522;50.018;20.014;2023-04-07T05:21:13;98744.07;;;1.32;100.00
25664;BME280;13522;50.018;20.014;2023-04-07T05:24:29;98744.89;;;1.33;100.00
25664;BME280;13522;50.018;20.014;2023-04-07T05:27:42;98739.59;;;1.34;100.00
25664;BME280;13522;50.018;20.014;2023-04-07T05:30:54;98749.20;;;1.34;100.00
25664;BME280;13522;50.018;20.014;2023-04-07T05:34:08;98750.06;;;1.34;100.00
25664;BME280;13522;50.018;20.014;2023-04-07T05:37:22;98747.34;;;1.36;100.00
25664;BME280;13522;50.018;20.014;2023-04-07T05:40:36;98745.48;;;1.38;100.00
25664;BME280;13522;50.018;20.014;2023-04-07T05:43:51;98753.15;;;1.41;100.00
25664;BME280;13522;50.018;20.014;2023-04-07T05:47:04;98753.15;;;1.41;100.00
25664;BME280;13522;50.018;20.014;2023-04-07T05:50:18;98751.23;;;1.44;100.00
25664;BME280;13522;50.018;20.014;2023-04-07T05:53:31;98751.29;;;1.43;100.00
25664;BME280;13522;50.018;20.014;2023-04-07T05:56:43;98751.48;;;1.40;100.00
25664;BME280;13522;50.018;20.014;2023-04-07T05:59:56;98739.16;;;1.42;100.00
25664;BME280;13522;50.018;20.014;2023-04-07T06:03:11;98735.78;;;1.40;100.00
25664;BME280;13522;50.018;20.014;2023-04-07T06:06:38;98738.30;;;1.41;100.00
25664;BME280;13522;50.018;20.014;2023-04-07T06:09:50;98725.98;;;1.43;100.00
25664;BME280;13522;50.018;20.014;2023-04-07T06:25:52;98744.35;;;1.57;100.00
25664;BME280;13522;50.018;20.014;2023-04-07T06:29:34;98753.63;;;1.63;100.00
25664;BME280;13522;50.018;20.014;2023-04-07T06:32:47;98758.00;;;1.62;100.00
25664;BME280;13522;50.018;20.014;2023-04-07T06:36:00;98737.16;;;1.61;100.00
25664;BME280;13522;50.018;20.014;2023-04-07T06:39:13;98726.44;;;1.65;100.00
25664;BME280;13522;50.018;20.014;2023-04-07T06:42:26;98725.33;;;1.69;100.00
25664;BME280;13522;50.018;20.014;2023-04-07T06:45:49;98740.38;;;1.66;100.00
25664;BME280;13522;50.018;20.014;2023-04-07T06:49:01;98739.83;;;1.75;100.00
25664;BME280;13522;50.018;20.014;2023-04-07T06:52:13;98738.91;;;1.76;100.00
25664;BME280;13522;50.018;20.014;2023-04-07T06:55:25;98738.06;;;1.75;100.00
25664;BME280;13522;50.018;20.014;2023-04-07T06:58:38;98746.01;;;1.74;100.00
25664;BME280;13522;50.018;20.014;2023-04-07T07:01:50;98731.13;;;1.74;100.00
25664;BME280;13522;50.018;20.014;2023-04-07T07:05:02;98739.56;;;1.80;100.00
25664;BME280;13522;50.018;20.014;2023-04-07T07:08:16;98738.91;;;1.76;100.00
25664;BME280;13522;50.018;20.014;2023-04-07T07:11:28;98744.14;;;1.76;100.00
25664;BME280;13522;50.018;20.014;2023-04-07T07:14:40;98747.42;;;1.80;100.00
25664;BME280;13522;50.018;20.014;2023-04-07T07:17:52;98752.75;;;1.78;100.00
25664;BME280;13522;50.018;20.014;2023-04-07T07:21:04;98751.55;;;1.84;100.00
25664;BME280;13522;50.018;20.014;2023-04-07T07:24:17;98736.69;;;1.84;100.00
25664;BME280;13522;50.018;20.014;2023-04-07T07:27:29;98734.83;;;1.86;100.00
25664;BME280;13522;50.018;20.014;2023-04-07T07:30:41;98736.69;;;1.84;100.00
25664;BME280;13522;50.018;20.014;2023-04-07T07:33:53;98742.58;;;1.88;100.00
25664;BME280;13522;50.018;20.014;2023-04-07T07:37:05;98748.38;;;1.93;100.00
25664;BME280;13522;50.018;20.014;2023-04-07T07:40:18;98744.38;;;2.01;100.00
25664;BME280;13522;50.018;20.014;2023-04-07T07:43:30;98742.88;;;1.97;100.00
25664;BME280;13522;50.018;20.014;2023-04-07T07:46:42;98755.22;;;1.95;100.00
25664;BME280;13522;50.018;20.014;2023-04-07T07:49:54;98752.50;;;1.97;100.00
25664;BME280;13522;50.018;20.014;2023-04-07T07:53:07;98742.88;;;1.97;100.00
25664;BME280;13522;50.018;20.014;2023-04-07T07:56:19;98739.15;;;2.01;100.00
25664;BME280;13522;50.018;20.014;2023-04-07T07:59:32;98733.18;;;2.13;100.00
25664;BME280;13522;50.018;20.014;2023-04-07T08:02:45;98729.25;;;2.20;100.00
25664;BME280;13522;50.018;20.014;2023-04-07T08:05:57;98732.62;;;2.22;100.00
25664;BME280;13522;50.018;20.014;2023-04-07T08:09:11;98734.77;;;2.30;100.00
25664;BME280;13522;50.018;20.014;2023-04-07T08:12:23;98738.91;;;2.20;100.00
25664;BME280;13522;50.018;20.014;2023-04-07T08:15:35;98750.48;;;2.30;100.00
25664;BME280;13522;50.018;20.014;2023-04-07T08:18:48;98746.95;;;2.31;100.00
25664;BME280;13522;50.018;20.014;2023-04-07T08:22:00;98755.30;;;2.37;100.00
25664;BME280;13522;50.018;20.014;2023-04-07T08:25:13;98770.65;;;2.43;100.00
25664;BME280;13522;50.018;20.014;2023-04-07T08:28:26;98762.20;;;2.38;100.00
25664;BME280;13522;50.018;20.014;2023-04-07T08:31:38;98771.77;;;2.39;100.00
25664;BME280;13522;50.018;20.014;2023-04-07T08:34:50;98766.23;;;2.44;100.00
25664;BME280;13522;50.018;20.014;2023-04-07T08:38:04;98765.79;;;2.51;100.00
25664;BME280;13522;50.018;20.014;2023-04-07T08:41:20;98776.07;;;2.54;100.00
25664;BME280;13522;50.018;20.014;2023-04-07T08:44:34;98773.06;;;2.46;100.00
25664;BME280;13522;50.018;20.014;2023-04-07T08:47:50;98772.90;;;2.49;100.00
25664;BME280;13522;50.018;20.014;2023-04-07T08:51:07;98772.53;;;2.55;100.00
25664;BME280;13522;50.018;20.014;2023-04-07T08:54:19;98773.45;;;2.54;100.00
25664;BME280;13522;50.018;20.014;2023-04-07T08:57:33;98761.67;;;2.47;100.00
25664;BME280;13522;50.018;20.014;2023-04-07T09:00:45;98757.55;;;2.43;100.00
25664;BME280;13522;50.018;20.014;2023-04-07T09:03:58;98760.55;;;2.51;100.00
25664;BME280;13522;50.018;20.014;2023-04-07T09:07:12;98755.10;;;2.54;100.00
25664;BME280;13522;50.018;20.014;2023-04-07T09:10:24;98759.22;;;2.58;100.00
25664;BME280;13522;50.018;20.014;2023-04-07T09:13:36;98750.33;;;2.47;100.00
25664;BME280;13522;50.018;20.014;2023-04-07T09:16:48;98735.08;;;2.39;100.00
25664;BME280;13522;50.018;20.014;2023-04-07T09:20:01;98728.71;;;2.29;100.00
25664;BME280;13522;50.018;20.014;2023-04-07T09:23:26;98734.40;;;2.36;100.00
25664;BME280;13522;50.018;20.014;2023-04-07T09:26:39;98739.20;;;2.43;100.00
25664;BME280;13522;50.018;20.014;2023-04-07T09:29:54;98733.01;;;2.44;100.00
25664;BME280;13522;50.018;20.014;2023-04-07T09:33:08;98726.74;;;2.47;100.00
25664;BME280;13522;50.018;20.014;2023-04-07T09:36:25;98728.14;;;2.52;100.00
25664;BME280;13522;50.018;20.014;2023-04-07T09:39:51;98732.91;;;2.60;100.00
25664;BME280;13522;50.018;20.014;2023-04-07T09:43:04;98740.67;;;2.61;100.00
25664;BME280;13522;50.018;20.014;2023-04-07T09:46:17;98728.31;;;2.63;100.00
25664;BME280;13522;50.018;20.014;2023-04-07T09:49:31;98726.64;;;2.62;100.00
25664;BME280;13522;50.018;20.014;2023-04-07T09:52:53;98728.78;;;2.70;100.00
25664;BME280;13522;50.018;20.014;2023-04-07T09:56:06;98727.19;;;2.68;100.00
25664;BME280;13522;50.018;20.014;2023-04-07T09:59:21;98726.64;;;2.62;100.00
25664;BME280;13522;50.018;20.014;2023-04-07T10:02:34;98733.17;;;2.70;100.00
25664;BME280;13522;50.018;20.014;2023-04-07T10:05:47;98724.93;;;2.76;100.00
25664;BME280;13522;50.018;20.014;2023-04-07T10:09:00;98731.59;;;2.81;100.00
25664;BME280;13522;50.018;20.014;2023-04-07T10:12:14;98734.50;;;2.77;100.00
25664;BME280;13522;50.018;20.014;2023-04-07T10:15:27;98728.87;;;2.83;100.00
25664;BME280;13522;50.018;20.014;2023-04-07T10:18:41;98730.73;;;2.95;100.00
25664;BME280;13522;50.018;20.014;2023-04-07T10:21:54;98733.14;;;2.98;100.00
25664;BME280;13522;50.018;20.014;2023-04-07T10:25:09;98733.03;;;2.99;100.00
25664;BME280;13522;50.018;20.014;2023-04-07T10:28:24;98741.29;;;2.93;100.00
25664;BME280;13522;50.018;20.014;2023-04-07T10:31:37;98740.47;;;2.93;100.00
25664;BME280;13522;50.018;20.014;2023-04-07T10:34:59;98736.72;;;2.97;100.00
25664;BME280;13522;50.018;20.014;2023-04-07T10:38:13;98727.89;;;2.98;100.00
25664;BME280;13522;50.018;20.014;2023-04-07T10:41:35;98724.16;;;2.88;100.00
25664;BME280;13522;50.018;20.014;2023-04-07T10:44:50;98719.48;;;2.93;100.00
25664;BME280;13522;50.018;20.014;2023-04-07T10:48:14;98713.11;;;2.97;100.00
25664;BME280;13522;50.018;20.014;2023-04-07T10:51:27;98721.41;;;3.03;100.00
25664;BME280;13522;50.018;20.014;2023-04-07T10:54:39;98723.75;;;3.08;100.00
25664;BME280;13522;50.018;20.014;2023-04-07T11:01:39;98734.84;;;3.25;100.00
25664;BME280;13522;50.018;20.014;2023-04-07T11:04:54;98732.83;;;3.16;100.00
25664;BME280;13522;50.018;20.014;2023-04-07T11:08:07;98744.34;;;3.14;100.00
25664;BME280;13522;50.018;20.014;2023-04-07T11:11:36;98744.20;;;3.29;100.00
25664;BME280;13522;50.018;20.014;2023-04-07T11:14:54;98741.69;;;3.28;100.00
25664;BME280;13522;50.018;20.014;2023-04-07T11:18:12;98736.44;;;3.28;100.00
25664;BME280;13522;50.018;20.014;2023-04-07T11:21:26;98740.55;;;3.32;100.00
25664;BME280;13522;50.018;20.014;2023-04-07T11:24:39;98733.31;;;3.35;100.00
25664;BME280;13522;50.018;20.014;2023-04-07T11:27:51;98737.71;;;3.35;100.00
25664;BME280;13522;50.018;20.014;2023-04-07T11:31:04;98739.02;;;3.42;100.00
25664;BME280;13522;50.018;20.014;2023-04-07T11:34:16;98733.77;;;3.42;100.00
25664;BME280;13522;50.018;20.014;2023-04-07T11:37:29;98735.02;;;3.36;100.00
25664;BME280;13522;50.018;20.014;2023-04-07T11:40:42;98728.70;;;3.39;100.00
25664;BME280;13522;50.018;20.014;2023-04-07T11:44:06;98741.25;;;3.48;100.00
25664;BME280;13522;50.018;20.014;2023-04-07T11:47:19;98739.15;;;3.53;100.00
25664;BME280;13522;50.018;20.014;2023-04-07T11:50:41;98744.80;;;3.47;100.00
25664;BME280;13522;50.018;20.014;2023-04-07T11:53:56;98739.36;;;3.50;100.00
25664;BME280;13522;50.018;20.014;2023-04-07T11:57:09;98735.04;;;3.49;100.00
25664;BME280;13522;50.018;20.014;2023-04-07T12:00:21;98736.28;;;3.43;100.00
25664;BME280;13522;50.018;20.014;2023-04-07T12:03:35;98738.63;;;3.48;100.00
25664;BME280;13522;50.018;20.014;2023-04-07T12:06:50;98730.98;;;3.31;100.00
25664;BME280;13522;50.018;20.014;2023-04-07T12:10:19;98737.98;;;3.44;100.00
25664;BME280;13522;50.018;20.014;2023-04-07T12:13:32;98732.73;;;3.44;100.00
25664;BME280;13522;50.018;20.014;2023-04-07T12:16:45;98740.29;;;3.49;100.00
25664;BME280;13522;50.018;20.014;2023-04-07T12:19:58;98740.69;;;3.43;100.00
25664;BME280;13522;50.018;20.014;2023-04-07T12:23:11;98737.71;;;3.35;100.00
25664;BME280;13522;50.018;20.014;2023-04-07T12:26:23;98741.19;;;3.35;100.00
25664;BME280;13522;50.018;20.014;2023-04-07T12:29:35;98743.28;;;3.30;100.00
25664;BME280;13522;50.018;20.014;2023-04-07T12:32:48;98742.96;;;3.35;100.00
25664;BME280;13522;50.018;20.014;2023-04-07T12:36:01;98750.45;;;3.41;100.00
25664;BME280;13522;50.018;20.014;2023-04-07T12:39:13;98749.63;;;3.40;100.00
25664;BME280;13522;50.018;20.014;2023-04-07T12:42:26;98749.30;;;3.45;100.00
25664;BME280;13522;50.018;20.014;2023-04-07T12:45:40;98745.12;;;3.42;100.00
25664;BME280;13522;50.018;20.014;2023-04-07T12:48:52;98739.66;;;3.45;100.00
25664;BME280;13522;50.018;20.014;2023-04-07T12:52:04;98738.63;;;3.48;100.00
25664;BME280;13522;50.018;20.014;2023-04-07T12:55:17;98743.88;;;3.48;100.00
25664;BME280;13522;50.018;20.014;2023-04-07T12:58:29;98749.70;;;3.39;100.00
25664;BME280;13522;50.018;20.014;2023-04-07T13:01:41;98743.92;;;3.34;100.00
25664;BME280;13522;50.018;20.014;2023-04-07T13:04:56;98741.94;;;3.37;100.00
25664;BME280;13522;50.018;20.014;2023-04-07T13:08:08;98749.91;;;3.36;100.00
25664;BME280;13522;50.018;20.014;2023-04-07T13:11:20;98737.53;;;3.38;100.00
25664;BME280;13522;50.018;20.014;2023-04-07T13:14:32;98741.30;;;3.34;100.00
25664;BME280;13522;50.018;20.014;2023-04-07T13:17:46;98747.86;;;3.27;100.00
25664;BME280;13522;50.018;20.014;2023-04-07T13:20:59;98748.03;;;3.38;100.00
25664;BME280;13522;50.018;20.014;2023-04-07T13:24:13;98746.78;;;3.43;100.00
25664;BME280;13522;50.018;20.014;2023-04-07T13:27:26;98749.52;;;3.42;100.00
25664;BME280;13522;50.018;20.014;2023-04-07T13:30:39;98753.73;;;3.44;100.00
25664;BME280;13522;50.018;20.014;2023-04-07T13:33:51;98753.63;;;3.46;100.00
25664;BME280;13522;50.018;20.014;2023-04-07T13:37:04;98756.89;;;3.49;100.00
25664;BME280;13522;50.018;20.014;2023-04-07T13:40:16;98749.97;;;3.48;100.00
25664;BME280;13522;50.018;20.014;2023-04-07T13:43:29;98753.52;;;3.47;100.00
25664;BME280;13522;50.018;20.014;2023-04-07T13:46:41;98752.49;;;3.50;100.00
25664;BME280;13522;50.018;20.014;2023-04-07T13:49:54;98750.61;;;3.52;100.00
25664;BME280;13522;50.018;20.014;2023-04-07T13:53:06;98757.13;;;3.59;100.00
25664;BME280;13522;50.018;20.014;2023-04-07T13:56:20;98757.98;;;3.60;100.00
25664;BME280;13522;50.018;20.014;2023-04-07T13:59:32;98762.59;;;3.56;100.00
25664;BME280;13522;50.018;20.014;2023-04-07T14:02:44;98766.75;;;3.46;100.00
25664;BME280;13522;50.018;20.014;2023-04-07T14:05:57;98768.34;;;3.48;100.00
25664;BME280;13522;50.018;20.014;2023-04-07T14:09:09;98768.53;;;3.45;100.00
25664;BME280;13522;50.018;20.014;2023-04-07T14:12:21;98770.30;;;3.45;100.00
25664;BME280;13522;50.018;20.014;2023-04-07T14:15:34;98772.19;;;3.43;100.00
25664;BME280;13522;50.018;20.014;2023-04-07T14:18:46;98775.55;;;3.45;100.00
25664;BME280;13522;50.018;20.014;2023-04-07T14:21:58;98773.03;;;3.43;100.00
25664;BME280;13522;50.018;20.014;2023-04-07T14:25:11;98784.28;;;3.45;100.00
25664;BME280;13522;50.018;20.014;2023-04-07T14:28:23;98774.63;;;3.46;100.00
25664;BME280;13522;50.018;20.014;2023-04-07T14:31:35;98772.93;;;3.45;100.00
25664;BME280;13522;50.018;20.014;2023-04-07T14:34:48;98782.51;;;3.46;100.00
25664;BME280;13522;50.018;20.014;2023-04-07T14:38:00;98773.67;;;3.47;100.00
25664;BME280;13522;50.018;20.014;2023-04-07T14:41:13;98775.95;;;3.39;100.00
25664;BME280;13522;50.018;20.014;2023-04-07T14:44:25;98773.53;;;3.36;100.00
25664;BME280;13522;50.018;20.014;2023-04-07T14:47:38;98779.56;;;3.24;100.00
25664;BME280;13522;50.018;20.014;2023-04-07T14:50:50;98775.23;;;3.23;100.00
25664;BME280;13522;50.018;20.014;2023-04-07T14:54:04;98778.07;;;3.20;100.00
25664;BME280;13522;50.018;20.014;2023-04-07T14:57:17;98777.15;;;3.21;100.00
25664;BME280;13522;50.018;20.014;2023-04-07T15:00:29;98785.73;;;3.23;100.00
25664;BME280;13522;50.018;20.014;2023-04-07T15:03:41;98780.48;;;3.23;100.00
25664;BME280;13522;50.018;20.014;2023-04-07T15:06:54;98774.31;;;3.24;100.00
25664;BME280;13522;50.018;20.014;2023-04-07T15:10:07;98770.55;;;3.28;100.00
25664;BME280;13522;50.018;20.014;2023-04-07T15:13:21;98771.48;;;3.27;100.00
25664;BME280;13522;50.018;20.014;2023-04-07T15:16:34;98779.35;;;3.27;100.00
25664;BME280;13522;50.018;20.014;2023-04-07T15:19:46;98769.91;;;3.24;100.00
25664;BME280;13522;50.018;20.014;2023-04-07T15:22:58;98766.23;;;3.27;100.00
25664;BME280;13522;50.018;20.014;2023-04-07T15:26:11;98769.42;;;3.32;100.00
25664;BME280;13522;50.018;20.014;2023-04-07T15:29:23;98769.21;;;3.35;100.00
25664;BME280;13522;50.018;20.014;2023-04-07T15:32:36;98774.46;;;3.35;100.00
25664;BME280;13522;50.018;20.014;2023-04-07T15:35:49;98777.44;;;3.43;100.00
25664;BME280;13522;50.018;20.014;2023-04-07T15:39:03;98768.64;;;3.44;100.00
25664;BME280;13522;50.018;20.014;2023-04-07T15:42:15;98777.44;;;3.43;100.00
25664;BME280;13522;50.018;20.014;2023-04-07T15:45:27;98771.55;;;3.39;100.00
25664;BME280;13522;50.018;20.014;2023-04-07T15:48:40;98777.65;;;3.40;100.00
25664;BME280;13522;50.018;20.014;2023-04-07T15:51:52;98779.53;;;3.38;100.00
25664;BME280;13522;50.018;20.014;2023-04-07T15:55:06;98776.16;;;3.36;100.00
25664;BME280;13522;50.018;20.014;2023-04-07T15:58:19;98781.02;;;3.42;100.00
25664;BME280;13522;50.018;20.014;2023-04-07T16:01:31;98786.84;;;3.33;100.00
25664;BME280;13522;50.018;20.014;2023-04-07T16:04:43;98791.16;;;3.34;100.00
25664;BME280;13522;50.018;20.014;2023-04-07T16:07:56;98797.16;;;3.36;100.00
25664;BME280;13522;50.018;20.014;2023-04-07T16:11:08;98791.91;;;3.36;100.00
25664;BME280;13522;50.018;20.014;2023-04-07T16:14:20;98795.66;;;3.32;100.00
25664;BME280;13522;50.018;20.014;2023-04-07T16:17:34;98799.31;;;3.29;100.00
25664;BME280;13522;50.018;20.014;2023-04-07T16:20:47;98799.78;;;3.36;100.00
25664;BME280;13522;50.018;20.014;2023-04-07T16:23:59;98805.31;;;3.31;100.00
25664;BME280;13522;50.018;20.014;2023-04-07T16:27:11;98807.19;;;3.29;100.00
25664;BME280;13522;50.018;20.014;2023-04-07T16:30:23;98811.70;;;3.27;100.00
25664;BME280;13522;50.018;20.014;2023-04-07T16:33:35;98811.41;;;3.32;100.00
25664;BME280;13522;50.018;20.014;2023-04-07T16:36:48;98813.83;;;3.35;100.00
25664;BME280;13522;50.018;20.014;2023-04-07T16:40:03;98814.89;;;3.32;100.00
25664;BME280;13522;50.018;20.014;2023-04-07T16:43:16;98824.64;;;3.30;100.00
25664;BME280;13522;50.018;20.014;2023-04-07T16:46:29;98827.05;;;3.33;100.00
25664;BME280;13522;50.018;20.014;2023-04-07T16:49:41;98834.28;;;3.30;100.00
25664;BME280;13522;50.018;20.014;2023-04-07T16:52:53;98832.52;;;3.30;100.00
25664;BME280;13522;50.018;20.014;2023-04-07T16:56:08;98840.28;;;3.32;100.00
25664;BME280;13522;50.018;20.014;2023-04-07T16:59:26;98844.95;;;3.27;100.00
25664;BME280;13522;50.018;20.014;2023-04-07T17:02:39;98840.02;;;3.22;100.00
25664;BME280;13522;50.018;20.014;2023-04-07T17:05:52;98842.44;;;3.25;100.00
25664;BME280;13522;50.018;20.014;2023-04-07T17:09:06;98850.31;;;3.25;100.00
25664;BME280;13522;50.018;20.014;2023-04-07T17:12:20;98857.27;;;3.12;100.00
25664;BME280;13522;50.018;20.014;2023-04-07T17:15:35;98868.41;;;3.16;100.00
25664;BME280;13522;50.018;20.014;2023-04-07T17:18:48;98866.54;;;3.18;100.00
25664;BME280;13522;50.018;20.014;2023-04-07T17:22:00;98868.98;;;3.21;100.00
25664;BME280;13522;50.018;20.014;2023-04-07T17:25:13;98866.44;;;3.19;100.00
25664;BME280;13522;50.018;20.014;2023-04-07T17:28:26;98877.78;;;3.20;100.00
25664;BME280;13522;50.018;20.014;2023-04-07T17:31:39;98879.38;;;3.22;100.00
25664;BME280;13522;50.018;20.014;2023-04-07T17:34:51;98885.45;;;3.23;100.00